Terminal Aerodrome Forecast
Issued by NWS

Home | Current Version | Previous Version | Text Only | Print | Product List | Glossary On
Versions: 1 2 3 4 5 6 7 8 9 10 11 12 13
000
FTUS45 KABQ 241418 AAA
TAFAEG
TAF AMD
KAEG 241418Z 2414/2512 31028G40KT P6SM SCT050 BKN120
     FM250000 32012G20KT P6SM SKC
     FM250500 32007KT P6SM SKC=

USA.gov is the U.S. government's official web portal to all federal, state and local government web resources and services.